Time;durP1;ratioP1;P1;durP2;ratioP2;P2;SDS_P1;SDS_P2;PMS_P1;PMS_P2;Temp;Humidity;BMP_temperature;BMP_pressure;BME280_temperature;BME280_humidity;BME280_pressure;Samples;Min_cycle;Max_cycle;Signal;HPM_P1;HPM_P2
2022/06/08 00:00:26;;;;;;;3.35;0.77;;;18.40;62.50;;;;;;5017123;28;20520;-48
2022/06/08 00:03:02;;;;;;;1.48;0.60;;;18.40;62.70;;;;;;5018804;28;20068;-49
2022/06/08 00:05:30;;;;;;;0.85;0.70;;;18.30;62.70;;;;;;5019966;28;20064;-46
2022/06/08 00:07:59;;;;;;;2.40;0.90;;;18.40;62.70;;;;;;5021318;28;20054;-46
2022/06/08 00:10:26;;;;;;;6.22;1.02;;;18.30;62.70;;;;;;5017771;28;20080;-49
2022/06/08 00:12:54;;;;;;;1.27;0.80;;;18.30;62.70;;;;;;5020258;28;20064;-49
2022/06/08 00:15:22;;;;;;;1.90;1.02;;;18.30;62.70;;;;;;5019846;28;20520;-46
2022/06/08 00:17:50;;;;;;;1.05;0.80;;;18.30;62.70;;;;;;5021545;28;20057;-48
2022/06/08 00:20:17;;;;;;;0.95;0.90;;;18.20;62.70;;;;;;5017298;28;20128;-49
2022/06/08 00:22:45;;;;;;;0.90;0.82;;;18.20;62.70;;;;;;5017670;28;20057;-52
2022/06/08 00:25:15;;;;;;;0.80;0.70;;;18.20;62.80;;;;;;5018905;28;20052;-46
2022/06/08 00:27:42;;;;;;;2.22;1.00;;;18.20;62.90;;;;;;5021181;28;20058;-50
2022/06/08 00:30:11;;;;;;;1.42;0.90;;;18.20;62.90;;;;;;5019065;28;20516;-51
2022/06/08 00:32:38;;;;;;;0.85;0.82;;;18.20;63.00;;;;;;5018373;28;20057;-46
2022/06/08 00:35:07;;;;;;;1.52;0.95;;;18.20;63.10;;;;;;5019664;28;20065;-47
2022/06/08 00:37:35;;;;;;;1.73;0.90;;;18.20;63.20;;;;;;5021016;28;20060;-46
2022/06/08 00:40:03;;;;;;;1.33;0.80;;;18.20;63.30;;;;;;5019324;28;20062;-47
2022/06/08 00:42:32;;;;;;;0.90;0.73;;;18.20;63.40;;;;;;5016074;28;20050;-47
2022/06/08 00:45:03;;;;;;;1.27;0.90;;;18.20;63.50;;;;;;5023910;28;20092;-50
2022/06/08 00:47:35;;;;;;;1.63;0.90;;;18.20;63.50;;;;;;5023941;28;20049;-49
2022/06/08 00:50:07;;;;;;;1.85;0.93;;;18.20;63.60;;;;;;5019800;28;20054;-47
2022/06/08 00:52:35;;;;;;;1.45;1.02;;;18.20;63.60;;;;;;5021274;28;20507;-47
2022/06/08 00:55:05;;;;;;;2.10;1.00;;;18.20;63.50;;;;;;5022738;28;20054;-46
2022/06/08 00:57:40;;;;;;;1.65;0.85;;;18.20;63.50;;;;;;5021572;28;20493;-49
2022/06/08 01:00:16;;;;;;;2.00;1.00;;;18.30;63.70;;;;;;5021771;28;20057;-46
2022/06/08 01:02:43;;;;;;;1.60;1.10;;;18.30;63.60;;;;;;5021449;28;20489;-49
2022/06/08 01:05:23;;;;;;;2.67;1.13;;;18.30;63.60;;;;;;5023475;28;20397;-49
2022/06/08 01:07:53;;;;;;;1.67;1.02;;;18.30;63.60;;;;;;5024267;28;20050;-52
2022/06/08 01:10:24;;;;;;;1.00;0.95;;;18.30;63.50;;;;;;5022849;28;20049;-51
2022/06/08 01:12:53;;;;;;;1.13;1.02;;;18.30;63.50;;;;;;5022704;28;20054;-52
2022/06/08 01:15:24;;;;;;;2.00;1.00;;;18.30;63.70;;;;;;5022596;28;20509;-46
2022/06/08 01:17:52;;;;;;;1.35;1.02;;;18.30;63.80;;;;;;5024163;28;20386;-48
2022/06/08 01:20:19;;;;;;;1.98;1.10;;;18.30;63.80;;;;;;5021135;28;20045;-50
2022/06/08 01:22:48;;;;;;;2.38;1.20;;;18.30;63.90;;;;;;5020522;28;20064;-50
2022/06/08 01:25:16;;;;;;;2.08;1.33;;;18.40;64.00;;;;;;5022958;28;20057;-51
2022/06/08 01:27:56;;;;;;;1.33;0.90;;;18.30;63.90;;;;;;5024463;28;20086;-50
2022/06/08 01:30:27;;;;;;;1.05;0.95;;;18.30;64.60;;;;;;5021625;28;20058;-51
2022/06/08 01:33:23;;;;;;;1.20;1.10;;;18.30;63.80;;;;;;5021886;28;20410;-50
2022/06/08 01:36:05;;;;;;;3.38;1.00;;;18.40;64.00;;;;;;5002147;28;20065;-48
2022/06/08 01:38:43;;;;;;;2.85;1.02;;;18.40;63.90;;;;;;4996080;28;20058;-49
2022/06/08 01:41:31;;;;;;;2.67;1.10;;;18.40;63.80;;;;;;5002129;28;20057;-52
2022/06/08 01:44:09;;;;;;;1.67;1.10;;;18.40;63.80;;;;;;4980997;28;20054;-49
2022/06/08 01:46:47;;;;;;;2.25;0.98;;;18.30;63.60;;;;;;5002044;28;20592;-48
2022/06/08 01:49:23;;;;;;;2.35;1.20;;;18.30;63.60;;;;;;5002539;28;20054;-49
2022/06/08 01:52:14;;;;;;;1.35;1.25;;;18.30;63.60;;;;;;4999308;28;20390;-51
2022/06/08 01:55:05;;;;;;;1.10;0.90;;;18.30;63.50;;;;;;5001107;28;20053;-49
2022/06/08 01:57:47;;;;;;;2.20;1.10;;;18.30;63.40;;;;;;5001960;28;20497;-51
2022/06/08 02:00:19;;;;;;;1.83;1.10;;;18.30;63.20;;;;;;4999493;28;20497;-48
2022/06/08 02:03:00;;;;;;;2.85;1.35;;;18.30;63.10;;;;;;4998765;28;20435;-50
2022/06/08 02:05:39;;;;;;;3.38;1.17;;;18.30;63.20;;;;;;4999277;28;20057;-50
2022/06/08 02:08:13;;;;;;;2.25;1.35;;;18.20;63.00;;;;;;5003608;28;20057;-51
2022/06/08 02:10:50;;;;;;;1.77;0.90;;;18.20;63.00;;;;;;5001945;28;20406;-50
2022/06/08 02:13:23;;;;;;;2.40;1.00;;;18.20;63.10;;;;;;5003452;28;20588;-46
2022/06/08 02:15:55;;;;;;;3.05;1.25;;;18.10;63.10;;;;;;5001274;28;20409;-46
2022/06/08 02:18:26;;;;;;;2.38;0.88;;;18.10;63.20;;;;;;5001920;28;20053;-51
2022/06/08 02:20:58;;;;;;;3.45;1.10;;;18.10;63.30;;;;;;4997523;28;20517;-51
2022/06/08 02:23:31;;;;;;;2.35;1.02;;;18.10;63.40;;;;;;4995383;28;20050;-50
2022/06/08 02:26:07;;;;;;;1.88;0.90;;;18.10;63.40;;;;;;4997569;28;20062;-49
2022/06/08 02:28:37;;;;;;;1.42;0.93;;;18.10;63.60;;;;;;4998326;28;20497;-48
2022/06/08 02:31:11;;;;;;;2.58;1.08;;;18.00;63.50;;;;;;4993758;28;20042;-48
2022/06/08 02:36:36;;;;;;;2.67;0.98;;;18.00;63.60;;;;;;4978359;28;20480;-51
2022/06/08 02:39:10;;;;;;;1.42;0.95;;;18.00;63.60;;;;;;5019038;28;20049;-49
2022/06/08 02:41:42;;;;;;;2.85;1.00;;;18.00;63.70;;;;;;5015635;28;20598;-50
2022/06/08 02:44:13;;;;;;;1.98;1.20;;;18.00;63.70;;;;;;5020338;28;20409;-48
2022/06/08 02:46:47;;;;;;;1.05;1.00;;;18.00;63.70;;;;;;5018959;28;20049;-53
2022/06/08 02:49:15;;;;;;;1.05;0.95;;;17.90;63.70;;;;;;5019365;28;20050;-48
2022/06/08 02:51:47;;;;;;;1.50;1.00;;;18.00;63.70;;;;;;5016680;28;20512;-48
2022/06/08 02:54:17;;;;;;;3.63;1.15;;;18.00;63.80;;;;;;5019373;28;20053;-52
2022/06/08 02:57:00;;;;;;;1.20;1.10;;;18.00;63.70;;;;;;5019336;28;20508;-51
2022/06/08 02:59:39;;;;;;;2.10;0.98;;;17.90;63.70;;;;;;5019847;28;20057;-50
2022/06/08 03:02:13;;;;;;;4.32;1.10;;;17.90;63.60;;;;;;5015643;28;20053;-51
2022/06/08 03:04:45;;;;;;;1.85;1.52;;;17.90;63.50;;;;;;5020272;28;20627;-50
2022/06/08 03:07:17;;;;;;;1.58;1.38;;;17.90;63.50;;;;;;5018016;28;20049;-51
2022/06/08 03:09:46;;;;;;;4.55;2.15;;;17.90;63.40;;;;;;5020723;28;20532;-47
2022/06/08 03:12:20;;;;;;;2.08;1.30;;;17.90;63.30;;;;;;5020130;28;20053;-49
2022/06/08 03:14:47;;;;;;;;;;;17.80;63.30;;;;;;5021993;28;20485;-52
2022/06/08 03:17:17;;;;;;;2.42;1.40;;;17.80;63.30;;;;;;5021086;28;20287;-47
2022/06/08 03:19:45;;;;;;;4.18;1.60;;;17.80;62.90;;;;;;5019385;28;20057;-47
2022/06/08 03:22:16;;;;;;;2.30;1.65;;;17.80;63.10;;;;;;5016500;28;20053;-50
2022/06/08 03:24:45;;;;;;;1.95;1.80;;;17.70;63.10;;;;;;5020415;28;20064;-48
2022/06/08 03:27:15;;;;;;;2.05;1.40;;;17.70;63.20;;;;;;5020986;28;20056;-49
2022/06/08 03:29:42;;;;;;;2.95;1.70;;;17.70;63.30;;;;;;5020810;28;20413;-51
2022/06/08 03:32:10;;;;;;;2.17;1.50;;;17.70;63.40;;;;;;5016646;28;20796;-49
2022/06/08 03:34:38;;;;;;;2.63;1.60;;;17.60;63.40;;;;;;5020685;28;20061;-50
2022/06/08 03:37:06;;;;;;;3.53;1.70;;;17.60;63.60;;;;;;5020759;28;20049;-50
2022/06/08 03:39:34;;;;;;;4.78;1.70;;;17.60;63.70;;;;;;5020618;28;20049;-49
2022/06/08 03:42:01;;;;;;;6.25;1.50;;;17.60;63.80;;;;;;5016749;28;20053;-48
2022/06/08 03:44:30;;;;;;;2.05;1.48;;;17.60;63.90;;;;;;5019653;28;20057;-52
2022/06/08 03:47:02;;;;;;;2.00;1.80;;;17.60;64.20;;;;;;5020884;28;20058;-52
2022/06/08 03:49:30;;;;;;;2.20;1.75;;;17.60;64.40;;;;;;5020183;28;20516;-52
2022/06/08 03:51:59;;;;;;;1.60;1.50;;;17.60;64.50;;;;;;5016066;28;20052;-50
2022/06/08 03:54:32;;;;;;;1.60;1.40;;;17.60;64.80;;;;;;5021098;28;20061;-49
2022/06/08 03:57:03;;;;;;;7.95;1.50;;;17.60;65.00;;;;;;5020586;28;20064;-49
2022/06/08 03:59:33;;;;;;;1.67;1.58;;;17.70;65.10;;;;;;5020299;28;20068;-52
2022/06/08 04:02:01;;;;;;;2.75;1.70;;;17.70;65.30;;;;;;5015852;28;20068;-51
2022/06/08 04:04:29;;;;;;;5.22;1.42;;;17.70;65.30;;;;;;5019433;28;20412;-52
2022/06/08 04:06:57;;;;;;;2.15;1.70;;;17.70;65.30;;;;;;5020433;28;20493;-49
2022/06/08 04:09:24;;;;;;;1.88;1.70;;;17.80;65.50;;;;;;5020845;28;20057;-48
2022/06/08 04:11:52;;;;;;;1.83;1.55;;;17.80;65.50;;;;;;5017219;28;20065;-50
2022/06/08 04:14:20;;;;;;;1.73;1.50;;;17.80;65.50;;;;;;5019852;28;20053;-50
2022/06/08 04:16:51;;;;;;;2.35;1.20;;;17.80;65.50;;;;;;5011490;28;20597;-51
2022/06/08 04:19:19;;;;;;;1.77;1.27;;;17.90;65.70;;;;;;5014694;28;20065;-51
2022/06/08 04:21:47;;;;;;;6.45;1.73;;;17.80;65.50;;;;;;5019396;28;20053;-50
2022/06/08 04:24:17;;;;;;;4.07;1.58;;;17.90;65.50;;;;;;5022907;28;20061;-52
2022/06/08 04:26:45;;;;;;;2.80;1.60;;;18.00;65.70;;;;;;5021615;28;20056;-53
2022/06/08 04:29:13;;;;;;;5.03;1.90;;;17.90;65.60;;;;;;5022812;28;20511;-52
2022/06/08 04:31:41;;;;;;;2.28;2.03;;;18.00;65.60;;;;;;5013683;28;20053;-50
2022/06/08 04:34:11;;;;;;;14.55;8.32;;;18.00;65.80;;;;;;5022978;28;20061;-50
2022/06/08 04:36:40;;;;;;;9.77;6.03;;;18.00;65.80;;;;;;5022617;28;20080;-51
2022/06/08 04:39:11;;;;;;;8.73;4.22;;;18.00;65.80;;;;;;5019837;28;20497;-50
2022/06/08 04:41:39;;;;;;;6.65;2.53;;;18.00;65.80;;;;;;5024715;28;20905;-49
2022/06/08 04:44:07;;;;;;;4.55;2.30;;;18.10;65.80;;;;;;5023975;28;20425;-50
2022/06/08 04:46:35;;;;;;;4.88;2.13;;;18.10;65.80;;;;;;5022192;28;20477;-50
2022/06/08 04:49:03;;;;;;;3.20;1.92;;;18.10;65.80;;;;;;5022494;28;20064;-50
2022/06/08 04:51:33;;;;;;;2.10;1.90;;;18.10;65.80;;;;;;5021611;28;20448;-51
2022/06/08 04:54:02;;;;;;;2.33;2.13;;;18.10;65.80;;;;;;5024074;28;20065;-53
2022/06/08 04:56:29;;;;;;;6.32;2.15;;;18.10;65.80;;;;;;5023400;28;20049;-51
2022/06/08 04:58:57;;;;;;;2.10;1.90;;;18.20;65.80;;;;;;5024777;28;20073;-51
2022/06/08 05:01:24;;;;;;;2.22;1.85;;;18.10;65.70;;;;;;5022976;28;20045;-49
2022/06/08 05:03:52;;;;;;;5.47;1.65;;;18.20;65.90;;;;;;5022648;28;20057;-50
2022/06/08 05:06:20;;;;;;;2.10;1.90;;;18.20;65.90;;;;;;5022225;28;20072;-53
2022/06/08 05:08:49;;;;;;;1.70;1.60;;;18.20;66.00;;;;;;5022094;28;20061;-50
2022/06/08 05:11:16;;;;;;;2.88;2.45;;;18.20;66.10;;;;;;5021669;28;20045;-52
2022/06/08 05:13:46;;;;;;;2.60;2.15;;;18.30;66.20;;;;;;5024478;28;20057;-52
2022/06/08 05:16:14;;;;;;;4.88;2.03;;;18.30;66.30;;;;;;5022124;28;20053;-52
2022/06/08 05:18:42;;;;;;;2.50;2.30;;;18.30;66.30;;;;;;5024385;28;20053;-54
2022/06/08 05:21:09;;;;;;;2.38;2.10;;;18.40;66.40;;;;;;5019782;28;20433;-52
2022/06/08 05:23:39;;;;;;;2.90;2.63;;;18.40;66.40;;;;;;5022940;28;20049;-51
2022/06/08 05:26:09;;;;;;;2.88;2.58;;;18.40;66.40;;;;;;5023327;28;20069;-52
2022/06/08 05:28:37;;;;;;;3.15;2.55;;;18.50;66.50;;;;;;5022532;28;20499;-52
2022/06/08 05:31:04;;;;;;;3.33;2.70;;;18.50;66.50;;;;;;5022144;28;20064;-50
2022/06/08 05:33:33;;;;;;;3.55;3.00;;;18.60;66.60;;;;;;5022639;28;20069;-53
2022/06/08 05:36:00;;;;;;;3.28;2.90;;;18.60;66.60;;;;;;5022188;28;20060;-52
2022/06/08 05:38:28;;;;;;;3.70;3.03;;;18.60;66.60;;;;;;5020816;28;20060;-54
2022/06/08 05:40:55;;;;;;;4.53;3.53;;;18.70;66.60;;;;;;5020181;28;20072;-53
2022/06/08 05:43:24;;;;;;;5.13;2.85;;;18.80;66.80;;;;;;5020496;28;20049;-53
2022/06/08 05:45:52;;;;;;;3.28;2.65;;;18.80;66.70;;;;;;5021089;28;20053;-55
2022/06/08 05:48:20;;;;;;;3.10;2.80;;;18.90;66.60;;;;;;5021256;28;20056;-53
2022/06/08 05:50:48;;;;;;;3.08;2.78;;;18.90;66.60;;;;;;5018736;28;20053;-53
2022/06/08 05:53:16;;;;;;;3.00;2.70;;;18.90;66.50;;;;;;5020775;28;20053;-52
2022/06/08 05:55:44;;;;;;;4.15;3.05;;;19.00;66.50;;;;;;5017272;28;20048;-53
2022/06/08 05:58:12;;;;;;;4.78;3.10;;;19.00;66.40;;;;;;5022844;28;20053;-52
2022/06/08 06:00:43;;;;;;;4.50;2.70;;;19.10;66.30;;;;;;5019344;28;20060;-52
2022/06/08 06:03:11;;;;;;;4.05;2.35;;;19.10;66.10;;;;;;5021467;28;20064;-54
2022/06/08 06:05:41;;;;;;;5.00;2.60;;;19.20;66.00;;;;;;5022012;28;20500;-51
2022/06/08 06:08:10;;;;;;;3.53;2.63;;;19.20;66.00;;;;;;5021808;28;20049;-51
2022/06/08 06:10:40;;;;;;;3.90;2.67;;;19.20;66.00;;;;;;5021697;28;20057;-52
2022/06/08 06:13:08;;;;;;;4.18;2.40;;;19.30;66.10;;;;;;5020662;28;20401;-51
2022/06/08 06:15:37;;;;;;;2.55;1.90;;;19.30;66.00;;;;;;5021276;28;20065;-54
2022/06/08 06:18:06;;;;;;;5.43;2.13;;;19.30;66.00;;;;;;5022455;28;20063;-53
2022/06/08 06:20:34;;;;;;;4.10;2.00;;;19.40;66.70;;;;;;5019350;28;20493;-50
2022/06/08 06:23:01;;;;;;;2.13;1.90;;;19.40;65.80;;;;;;5022238;28;20052;-51
2022/06/08 06:25:29;;;;;;;3.15;2.08;;;19.50;65.80;;;;;;5021002;28;20132;-50
2022/06/08 06:27:56;;;;;;;2.17;1.70;;;19.50;65.90;;;;;;5019772;28;20061;-51
2022/06/08 06:30:24;;;;;;;4.28;1.80;;;19.60;65.80;;;;;;5020039;28;20533;-50
2022/06/08 06:32:51;;;;;;;2.17;1.58;;;19.60;65.80;;;;;;5022142;28;20049;-52
2022/06/08 06:35:22;;;;;;;3.20;1.80;;;19.70;66.10;;;;;;5020944;28;20065;-53
2022/06/08 06:37:50;;;;;;;3.65;1.70;;;19.70;66.40;;;;;;5022008;28;20052;-50
2022/06/08 06:40:18;;;;;;;1.73;1.60;;;19.80;66.40;;;;;;5019141;28;20527;-49
2022/06/08 06:42:46;;;;;;;4.45;1.92;;;19.80;66.10;;;;;;5018964;28;20057;-50
2022/06/08 06:45:14;;;;;;;1.25;1.15;;;19.90;66.50;;;;;;5018878;28;20057;-53
2022/06/08 06:47:42;;;;;;;2.38;1.70;;;20.00;65.70;;;;;;5020299;28;20049;-50
2022/06/08 06:50:14;;;;;;;4.18;1.48;;;20.10;65.50;;;;;;5018251;28;20057;-50
2022/06/08 06:52:49;;;;;;;2.63;1.50;;;20.10;65.00;;;;;;5017859;28;20481;-52
2022/06/08 06:55:22;;;;;;;1.50;1.27;;;20.20;65.10;;;;;;5018098;28;20059;-50
2022/06/08 06:57:53;;;;;;;1.50;1.15;;;20.20;64.90;;;;;;5019328;28;20065;-50
2022/06/08 07:00:21;;;;;;;1.63;1.13;;;20.30;64.80;;;;;;5016807;28;20045;-52
2022/06/08 07:02:50;;;;;;;2.70;1.83;;;20.30;64.60;;;;;;5020124;28;20448;-54
2022/06/08 07:05:22;;;;;;;12.95;7.47;;;20.40;64.60;;;;;;5020963;28;20056;-55
2022/06/08 07:07:51;;;;;;;5.10;3.47;;;20.50;64.40;;;;;;5037269;28;20049;-52
2022/06/08 07:10:20;;;;;;;7.07;1.98;;;20.50;64.40;;;;;;5040888;28;20092;-52
2022/06/08 07:12:48;;;;;;;1.90;1.30;;;20.60;64.20;;;;;;5037761;28;20055;-52
2022/06/08 07:15:20;;;;;;;2.80;1.33;;;20.60;63.90;;;;;;5038328;28;20049;-53
2022/06/08 07:17:47;;;;;;;1.52;0.98;;;20.70;63.90;;;;;;5039685;28;20052;-50
2022/06/08 07:20:15;;;;;;;5.50;1.10;;;20.70;63.90;;;;;;5040363;28;20049;-51
2022/06/08 07:22:42;;;;;;;3.10;1.00;;;20.80;63.70;;;;;;5034164;28;20501;-50
2022/06/08 07:25:14;;;;;;;2.13;1.10;;;20.80;63.60;;;;;;5039139;28;20056;-52
2022/06/08 07:27:42;;;;;;;2.08;1.00;;;20.80;63.70;;;;;;5039726;28;20056;-52
2022/06/08 07:30:12;;;;;;;3.10;1.20;;;20.90;63.60;;;;;;5039638;28;20057;-52
2022/06/08 07:32:39;;;;;;;3.40;1.00;;;20.90;63.50;;;;;;5042625;28;20064;-52
2022/06/08 07:35:08;;;;;;;5.15;1.38;;;21.00;63.50;;;;;;5055047;28;20059;-53
2022/06/08 07:37:36;;;;;;;3.05;1.05;;;21.00;63.50;;;;;;5061952;28;20057;-53
2022/06/08 07:40:04;;;;;;;9.52;1.50;;;21.00;63.30;;;;;;5061308;28;20052;-54
2022/06/08 07:42:36;;;;;;;2.28;1.15;;;21.10;63.50;;;;;;5060126;28;20514;-56
2022/06/08 07:45:06;;;;;;;3.25;1.08;;;21.10;63.30;;;;;;5061358;28;20057;-53
2022/06/08 07:49:36;;;;;;;2.88;0.85;;;21.10;63.10;;;;;;5060967;28;20063;-53
2022/06/08 07:50:21;;;;;;;3.85;1.30;;;21.20;63.10;;;;;;5057319;28;20055;-50
2022/06/08 07:52:48;;;;;;;4.30;1.20;;;21.30;63.40;;;;;;5062062;28;20496;-54
2022/06/08 07:55:16;;;;;;;3.97;1.10;;;21.30;63.20;;;;;;5065369;28;20052;-53
2022/06/08 07:57:47;;;;;;;3.42;1.20;;;21.40;63.00;;;;;;5065003;28;20063;-52
2022/06/08 08:00:17;;;;;;;2.58;1.00;;;21.40;62.70;;;;;;5062821;28;20048;-52
2022/06/08 08:02:44;;;;;;;2.28;0.90;;;21.40;62.40;;;;;;5060349;28;20055;-54
2022/06/08 08:05:14;;;;;;;6.82;1.55;;;21.50;62.30;;;;;;5062847;28;20538;-48
2022/06/08 08:07:42;;;;;;;2.50;0.82;;;21.50;62.10;;;;;;5063985;28;20059;-52
2022/06/08 08:10:14;;;;;;;3.42;1.20;;;21.60;62.10;;;;;;5065899;28;20063;-52
2022/06/08 08:12:42;;;;;;;6.28;0.98;;;21.60;61.50;;;;;;5063917;28;20052;-55
2022/06/08 08:15:12;;;;;;;2.13;1.13;;;21.60;61.40;;;;;;5063988;28;20496;-52
2022/06/08 08:17:41;;;;;;;2.03;0.93;;;21.70;61.30;;;;;;5064346;28;20060;-51
2022/06/08 08:20:10;;;;;;;2.83;1.10;;;21.70;61.60;;;;;;5063022;28;20091;-55
2022/06/08 08:22:38;;;;;;;4.10;0.88;;;21.70;61.70;;;;;;5065005;28;20836;-49
2022/06/08 08:25:06;;;;;;;3.65;1.40;;;21.80;61.80;;;;;;5064625;28;20065;-52
2022/06/08 08:27:34;;;;;;;8.63;1.27;;;21.80;62.00;;;;;;5065273;28;20056;-49
2022/06/08 08:30:01;;;;;;;4.43;1.15;;;21.80;61.80;;;;;;5063433;28;20059;-52
2022/06/08 08:32:30;;;;;;;3.17;1.23;;;21.90;61.50;;;;;;5063537;28;20055;-52
2022/06/08 08:34:57;;;;;;;3.08;0.98;;;21.90;61.10;;;;;;5061996;28;20066;-53
2022/06/08 08:37:25;;;;;;;5.95;1.42;;;22.00;61.30;;;;;;5064979;28;20053;-54
2022/06/08 08:39:52;;;;;;;3.67;1.25;;;22.00;61.40;;;;;;5063007;28;20048;-52
2022/06/08 08:42:24;;;;;;;3.70;0.82;;;22.00;61.10;;;;;;5065335;28;20424;-52
2022/06/08 08:44:54;;;;;;;3.20;1.10;;;22.10;60.90;;;;;;5049859;28;20052;-48
2022/06/08 08:47:29;;;;;;;3.83;1.20;;;22.10;60.80;;;;;;5047632;28;20075;-53
2022/06/08 08:50:00;;;;;;;3.88;1.00;;;22.20;60.00;;;;;;5058652;28;20488;-52
2022/06/08 08:52:40;;;;;;;6.72;1.60;;;22.20;60.00;;;;;;5062142;28;20546;-51
2022/06/08 08:55:18;;;;;;;4.55;1.00;;;22.20;59.70;;;;;;5065208;28;20496;-53
2022/06/08 08:57:55;;;;;;;4.47;0.90;;;22.20;59.60;;;;;;5063634;28;20056;-51
2022/06/08 09:00:32;;;;;;;5.90;1.25;;;22.30;59.60;;;;;;5064212;28;20511;-53
2022/06/08 09:03:16;;;;;;;4.28;1.27;;;22.30;59.60;;;;;;5060477;28;20056;-55
2022/06/08 09:05:47;;;;;;;10.32;1.70;;;22.30;59.40;;;;;;5063085;28;20052;-50
2022/06/08 09:08:17;;;;;;;3.30;1.17;;;22.30;59.20;;;;;;5063741;28;20411;-50
2022/06/08 09:10:45;;;;;;;5.82;1.00;;;22.40;59.20;;;;;;5062385;28;20064;-48
2022/06/08 09:13:17;;;;;;;5.03;1.30;;;22.40;59.10;;;;;;5062837;28;20056;-53
2022/06/08 09:15:52;;;;;;;6.22;1.10;;;22.40;59.00;;;;;;5062955;28;20060;-46
2022/06/08 09:18:33;;;;;;;4.45;1.02;;;22.50;58.80;;;;;;5064486;28;20411;-48
2022/06/08 09:21:29;;;;;;;4.30;1.45;;;22.50;58.70;;;;;;5056449;28;20075;-53
2022/06/08 09:23:58;;;;;;;6.97;1.13;;;22.50;58.40;;;;;;5063381;28;20507;-55
2022/06/08 09:26:39;;;;;;;3.85;1.23;;;22.50;58.00;;;;;;5064244;28;20594;-48
2022/06/08 09:29:16;;;;;;;5.82;1.00;;;22.60;57.80;;;;;;5061523;28;20059;-48
2022/06/08 09:31:45;;;;;;;6.07;1.27;;;22.60;57.50;;;;;;5061339;28;20060;-49
2022/06/08 09:34:19;;;;;;;8.15;1.25;;;22.60;57.30;;;;;;5058673;28;20048;-49
2022/06/08 09:37:11;;;;;;;5.13;1.20;;;22.70;56.80;;;;;;5062101;28;20598;-48
2022/06/08 09:39:39;;;;;;;6.70;1.10;;;22.70;56.70;;;;;;5062554;28;20056;-49
2022/06/08 09:42:23;;;;;;;7.97;1.17;;;22.70;56.20;;;;;;5060717;28;20059;-48
2022/06/08 09:44:58;;;;;;;4.25;1.20;;;22.70;55.60;;;;;;5061224;28;20057;-48
2022/06/08 09:53:21;;;;;;;4.03;1.05;;;22.90;56.10;;;;;;5070067;28;20522;-51
2022/06/08 09:56:00;;;;;;;2.38;1.10;;;22.90;55.90;;;;;;5063098;28;20063;-48
2022/06/08 09:58:48;;;;;;;5.53;1.40;;;22.90;55.70;;;;;;5062795;28;20052;-48
2022/06/08 10:01:26;;;;;;;5.85;1.00;;;23.00;55.30;;;;;;5060593;28;20411;-47
2022/06/08 10:04:11;;;;;;;3.72;1.00;;;23.00;55.60;;;;;;5051908;28;20052;-50
2022/06/08 10:06:47;;;;;;;8.93;1.33;;;23.10;55.40;;;;;;5051825;28;20067;-46
2022/06/08 10:09:28;;;;;;;5.85;1.40;;;23.10;55.00;;;;;;5052147;28;20798;-46
2022/06/08 10:12:04;;;;;;;4.72;1.20;;;23.20;54.40;;;;;;5051643;28;20057;-50
2022/06/08 10:14:42;;;;;;;5.50;1.35;;;23.10;54.30;;;;;;5050090;28;20049;-49
2022/06/08 10:17:17;;;;;;;8.07;1.55;;;23.20;53.90;;;;;;5051838;28;20056;-49
2022/06/08 10:19:57;;;;;;;7.13;1.35;;;23.20;54.40;;;;;;5050794;28;20097;-46
2022/06/08 10:22:29;;;;;;;7.53;1.35;;;23.20;54.70;;;;;;5054077;28;20049;-47
2022/06/08 10:25:07;;;;;;;4.40;1.05;;;23.20;54.10;;;;;;5051027;28;20045;-47
2022/06/08 10:27:39;;;;;;;4.57;1.13;;;23.20;54.10;;;;;;5051976;28;20048;-50
2022/06/08 10:30:15;;;;;;;4.70;1.20;;;23.30;53.80;;;;;;5051192;28;20048;-50
2022/06/08 10:32:48;;;;;;;8.20;1.30;;;23.30;53.60;;;;;;5054517;28;20075;-46
2022/06/08 10:35:28;;;;;;;4.93;1.10;;;23.40;53.40;;;;;;5049438;28;20059;-45
2022/06/08 10:37:56;;;;;;;4.97;1.30;;;23.40;53.40;;;;;;5052020;28;20052;-48
2022/06/08 10:40:30;;;;;;;4.18;1.23;;;23.40;53.30;;;;;;5051062;28;20123;-50
2022/06/08 10:42:56;;;;;;;3.70;1.10;;;23.50;53.20;;;;;;5052464;28;20055;-53
2022/06/08 10:45:38;;;;;;;3.78;1.13;;;23.50;53.00;;;;;;5051090;28;20126;-50
2022/06/08 10:48:36;;;;;;;7.65;1.33;;;23.60;51.60;;;;;;5051014;28;20057;-47
2022/06/08 10:51:23;;;;;;;4.93;1.42;;;23.50;51.40;;;;;;5049252;28;20415;-52
2022/06/08 10:56:55;;;;;;;8.85;1.35;;;23.50;50.20;;;;;;5058755;28;20055;-56
2022/06/08 10:59:25;;;;;;;9.50;1.10;;;23.30;50.00;;;;;;5051460;28;20067;-52
2022/06/08 11:01:59;;;;;;;5.97;1.50;;;23.20;50.50;;;;;;5053196;28;20052;-52
2022/06/08 11:04:55;;;;;;;3.70;0.95;;;23.10;50.80;;;;;;5050444;28;20502;-50
2022/06/08 11:07:24;;;;;;;4.65;1.23;;;23.00;51.60;;;;;;5038399;28;20052;-57
2022/06/08 11:10:00;;;;;;;3.88;0.88;;;22.90;51.60;;;;;;5051944;28;20064;-50
2022/06/08 11:12:52;;;;;;;4.82;1.00;;;22.80;51.90;;;;;;5050041;28;20057;-49
2022/06/08 11:15:34;;;;;;;11.15;1.63;;;22.70;52.40;;;;;;5049946;28;20053;-51
2022/06/08 11:18:11;;;;;;;4.25;1.27;;;22.60;53.20;;;;;;5050701;28;20131;-48
2022/06/08 11:20:47;;;;;;;8.60;1.83;;;22.60;53.70;;;;;;5049560;28;20049;-50
2022/06/08 11:23:20;;;;;;;5.43;1.05;;;22.60;54.10;;;;;;5053037;28;20053;-54
2022/06/08 11:25:52;;;;;;;4.97;1.05;;;22.60;54.30;;;;;;5050259;28;20044;-46
2022/06/08 11:28:31;;;;;;;3.78;1.23;;;22.60;54.10;;;;;;5050918;28;20403;-50
2022/06/08 11:31:01;;;;;;;4.00;1.13;;;22.60;54.10;;;;;;5051937;28;20052;-47
2022/06/08 11:33:52;;;;;;;4.43;1.30;;;22.60;54.10;;;;;;5057007;28;20047;-46
2022/06/08 11:36:40;;;;;;;3.00;0.98;;;22.60;55.00;;;;;;5058882;28;20060;-48
2022/06/08 11:39:20;;;;;;;2.83;0.93;;;22.70;54.70;;;;;;5061905;28;20063;-47
2022/06/08 11:42:00;;;;;;;6.97;1.48;;;22.70;55.40;;;;;;5054644;28;20056;-50
2022/06/08 11:44:34;;;;;;;4.68;1.30;;;22.70;54.70;;;;;;5059374;28;20051;-48
2022/06/08 11:47:16;;;;;;;7.07;2.05;;;22.80;54.80;;;;;;5058657;28;20052;-47
2022/06/08 11:49:45;;;;;;;4.82;1.45;;;22.80;54.50;;;;;;5060600;28;20056;-49
2022/06/08 11:52:34;;;;;;;4.40;1.27;;;22.80;54.70;;;;;;5042359;28;20423;-51
2022/06/08 11:55:09;;;;;;;3.58;1.25;;;22.80;54.70;;;;;;5046497;28;20056;-47
2022/06/08 11:57:40;;;;;;;3.80;1.35;;;22.80;55.00;;;;;;5060466;28;20060;-47
2022/06/08 12:00:22;;;;;;;3.28;1.08;;;22.80;55.20;;;;;;5058703;28;20052;-47
2022/06/08 12:02:55;;;;;;;6.68;1.60;;;22.80;55.40;;;;;;5058573;28;20059;-48
2022/06/08 12:05:26;;;;;;;4.40;1.25;;;22.80;55.50;;;;;;5057762;28;20048;-47
2022/06/08 12:08:10;;;;;;;3.60;1.15;;;22.80;55.30;;;;;;5058832;28;20594;-47
2022/06/08 12:10:38;;;;;;;2.70;1.20;;;22.80;55.40;;;;;;5060494;28;20446;-48
2022/06/08 12:13:16;;;;;;;4.32;1.10;;;22.80;55.50;;;;;;5061419;28;20059;-49
2022/06/08 12:15:49;;;;;;;4.90;1.27;;;22.70;55.70;;;;;;5060394;28;20079;-47
2022/06/08 12:18:42;;;;;;;7.85;1.65;;;22.80;55.80;;;;;;5061011;28;20059;-45
2022/06/08 12:21:21;;;;;;;6.15;1.65;;;22.70;55.80;;;;;;5059487;28;20045;-45
2022/06/08 12:24:20;;;;;;;10.45;1.55;;;22.70;55.90;;;;;;5059607;28;20049;-45
2022/06/08 12:26:58;;;;;;;5.95;2.03;;;22.70;56.10;;;;;;5060420;28;20052;-52
2022/06/08 12:29:30;;;;;;;4.88;1.08;;;22.70;56.10;;;;;;5059719;28;20052;-47
2022/06/08 12:32:16;;;;;;;3.92;1.15;;;22.70;56.20;;;;;;5058890;28;20435;-49
2022/06/08 12:34:46;;;;;;;4.85;1.23;;;22.70;56.30;;;;;;5057213;28;20412;-48
2022/06/08 12:37:36;;;;;;;3.15;1.05;;;22.70;56.40;;;;;;5060531;28;20055;-45
2022/06/08 12:40:26;;;;;;;5.05;1.45;;;22.60;56.60;;;;;;5063511;28;20055;-45
2022/06/08 12:42:59;;;;;;;5.03;1.50;;;22.60;56.80;;;;;;5061655;28;20060;-48
2022/06/08 12:45:33;;;;;;;3.28;1.33;;;22.60;56.90;;;;;;5063070;28;20053;-51
2022/06/08 12:48:18;;;;;;;5.60;1.27;;;22.60;57.00;;;;;;5064021;28;20045;-47
2022/06/08 12:50:45;;;;;;;4.82;1.63;;;22.60;57.10;;;;;;5062185;28;20052;-50
2022/06/08 12:53:13;;;;;;;4.05;1.70;;;22.60;57.30;;;;;;5063530;28;21870;-45
2022/06/08 12:55:40;;;;;;;2.90;1.20;;;22.60;57.10;;;;;;5064598;28;20048;-52
2022/06/08 12:58:08;;;;;;;3.47;1.30;;;22.60;57.00;;;;;;5064559;28;20056;-50
2022/06/08 13:00:38;;;;;;;2.83;1.30;;;22.60;57.00;;;;;;5062193;28;20423;-46
2022/06/08 13:03:17;;;;;;;6.38;1.42;;;22.60;57.00;;;;;;5063479;28;20048;-46
2022/06/08 13:05:45;;;;;;;6.07;1.50;;;22.50;56.90;;;;;;5059518;28;20872;-47
2022/06/08 13:08:19;;;;;;;3.78;1.10;;;22.50;56.90;;;;;;5064347;28;20052;-46
2022/06/08 13:10:47;;;;;;;3.08;1.02;;;22.50;56.80;;;;;;5062936;28;20078;-47
2022/06/08 13:13:20;;;;;;;2.97;1.27;;;22.50;56.90;;;;;;5055539;28;20051;-47
2022/06/08 13:15:49;;;;;;;3.65;1.30;;;22.50;56.90;;;;;;5056196;28;20081;-48
2022/06/08 13:18:20;;;;;;;4.47;1.30;;;22.40;56.80;;;;;;5063783;28;20049;-47
2022/06/08 13:20:48;;;;;;;3.88;1.40;;;22.40;56.90;;;;;;5051129;28;20072;-46
2022/06/08 13:23:16;;;;;;;3.22;1.58;;;22.40;56.90;;;;;;5049322;28;20059;-47
2022/06/08 13:25:47;;;;;;;4.00;1.30;;;22.40;57.00;;;;;;5046162;28;20059;-48